createdAt,value
2023-02-11T00:01:30.441Z,6.72
2023-02-11T00:03:59.262Z,4.70
2023-02-11T00:06:28.261Z,5.55
2023-02-11T00:08:56.904Z,5.13
2023-02-11T00:11:31.140Z,5.20
2023-02-11T00:14:00.714Z,6.03
2023-02-11T00:16:28.229Z,4.90
2023-02-11T00:18:55.643Z,5.22
2023-02-11T00:21:25.281Z,4.47
2023-02-11T00:23:53.560Z,5.80
2023-02-11T00:26:21.934Z,4.63
2023-02-11T00:28:50.333Z,6.13
2023-02-11T00:31:19.935Z,5.00
2023-02-11T00:33:48.736Z,5.38
2023-02-11T00:36:19.230Z,5.78
2023-02-11T00:38:48.381Z,5.50
2023-02-11T00:41:15.869Z,5.13
2023-02-11T00:43:43.324Z,5.00
2023-02-11T00:46:10.742Z,3.70
2023-02-11T00:48:37.992Z,3.75
2023-02-11T00:51:05.627Z,4.47
2023-02-11T00:53:33.369Z,5.32
2023-02-11T00:56:01.258Z,5.10
2023-02-11T00:58:28.690Z,3.92
2023-02-11T01:00:56.076Z,5.03
2023-02-11T01:03:24.933Z,4.20
2023-02-11T01:05:52.158Z,4.60
2023-02-11T01:08:19.739Z,5.05
2023-02-11T01:10:54.613Z,5.43
2023-02-11T01:13:22.377Z,4.10
2023-02-11T01:15:50.178Z,4.78
2023-02-11T01:18:17.875Z,3.65
2023-02-11T01:20:45.390Z,4.90
2023-02-11T01:23:12.438Z,3.53
2023-02-11T01:25:39.496Z,4.30
2023-02-11T01:28:06.584Z,4.45
2023-02-11T01:30:33.628Z,3.72
2023-02-11T01:33:00.662Z,4.43
2023-02-11T01:35:27.779Z,4.82
2023-02-11T01:37:56.028Z,4.25
2023-02-11T01:40:24.413Z,3.60
2023-02-11T01:42:51.556Z,4.25
2023-02-11T01:45:47.292Z,3.72
2023-02-11T01:48:34.734Z,4.35
2023-02-11T01:51:08.312Z,3.47
2023-02-11T01:53:57.081Z,4.22
2023-02-11T01:56:46.300Z,3.30
2023-02-11T01:59:20.369Z,4.28
2023-02-11T02:01:53.175Z,4.03
2023-02-11T02:04:23.443Z,4.38
2023-02-11T02:07:10.793Z,4.50
2023-02-11T02:09:44.580Z,2.85
2023-02-11T02:12:11.739Z,4.22
2023-02-11T02:14:40.815Z,4.20
2023-02-11T02:17:18.887Z,3.75
2023-02-11T02:20:03.974Z,3.47
2023-02-11T02:23:00.084Z,2.88
2023-02-11T02:25:27.091Z,2.85
2023-02-11T02:28:33.980Z,3.60
2023-02-11T02:31:19.460Z,2.42
2023-02-11T02:34:06.829Z,3.75
2023-02-11T02:36:33.789Z,2.22
2023-02-11T02:39:08.167Z,2.90
2023-02-11T02:41:37.996Z,2.90
2023-02-11T02:46:34.266Z,2.25
2023-02-11T02:49:01.883Z,2.78
2023-02-11T02:51:40.803Z,1.75
2023-02-11T02:54:29.600Z,1.90
2023-02-11T02:57:18.140Z,2.22
2023-02-11T03:00:32.883Z,2.35
2023-02-11T03:03:02.899Z,2.05
2023-02-11T03:05:55.865Z,2.88
2023-02-11T03:08:30.593Z,2.45
2023-02-11T03:11:01.631Z,2.80
2023-02-11T03:13:33.831Z,2.60
2023-02-11T03:16:08.990Z,2.63
2023-02-11T03:18:39.105Z,3.17
2023-02-11T03:21:09.983Z,2.55
2023-02-11T03:23:41.927Z,3.00
2023-02-11T03:26:23.439Z,2.58
2023-02-11T03:29:13.416Z,2.50
2023-02-11T03:31:52.928Z,1.95
2023-02-11T03:34:42.881Z,2.45
2023-02-11T03:37:34.931Z,2.85
2023-02-11T03:40:39.599Z,3.08
2023-02-11T03:43:20.407Z,2.55
2023-02-11T03:45:50.566Z,2.40
2023-02-11T03:48:41.218Z,2.50
2023-02-11T03:51:11.479Z,2.08
2023-02-11T03:53:41.541Z,2.25
2023-02-11T03:56:11.656Z,1.95
2023-02-11T03:58:38.876Z,1.92
2023-02-11T04:01:09.943Z,2.30
2023-02-11T04:03:37.031Z,2.45
2023-02-11T04:06:04.462Z,1.88
2023-02-11T04:08:32.115Z,2.22
2023-02-11T04:10:59.463Z,1.95
2023-02-11T04:13:26.618Z,1.83
2023-02-11T04:15:54.006Z,2.28
2023-02-11T04:18:21.336Z,2.22
2023-02-11T04:20:50.463Z,1.85
2023-02-11T04:23:17.595Z,2.65
2023-02-11T04:25:44.646Z,2.47
2023-02-11T04:28:11.676Z,1.50
2023-02-11T04:30:38.709Z,3.10
2023-02-11T04:33:05.808Z,2.35
2023-02-11T04:35:32.856Z,1.83
2023-02-11T04:37:59.850Z,2.40
2023-02-11T04:40:26.886Z,2.00
2023-02-11T04:42:53.893Z,2.25
2023-02-11T04:45:20.940Z,2.20
2023-02-11T04:47:47.965Z,2.53
2023-02-11T04:50:15.202Z,2.50
2023-02-11T04:52:42.242Z,1.77
2023-02-11T04:55:12.449Z,2.05
2023-02-11T04:57:39.567Z,2.25
2023-02-11T05:00:08.394Z,2.00
2023-02-11T05:02:35.564Z,2.72
2023-02-11T05:05:05.420Z,2.03
2023-02-11T05:07:32.630Z,1.80
2023-02-11T05:09:59.803Z,2.25
2023-02-11T05:12:29.180Z,2.08
2023-02-11T05:14:56.268Z,2.42
2023-02-11T05:17:25.533Z,2.40
2023-02-11T05:19:55.069Z,2.38
2023-02-11T05:22:25.181Z,1.73
2023-02-11T05:24:52.158Z,1.92
2023-02-11T05:27:22.050Z,2.55
2023-02-11T05:32:20.123Z,1.90
2023-02-11T05:34:47.200Z,1.83
2023-02-11T05:37:14.486Z,2.17
2023-02-11T05:39:48.902Z,2.15
2023-02-11T05:42:18.441Z,1.80
2023-02-11T05:44:50.302Z,2.00
2023-02-11T05:49:48.204Z,2.05
2023-02-11T05:52:37.325Z,2.92
2023-02-11T05:55:04.988Z,1.77
2023-02-11T05:57:32.146Z,2.15
2023-02-11T05:59:59.687Z,1.85
2023-02-11T06:02:31.459Z,2.00
2023-02-11T06:04:58.924Z,2.03
2023-02-11T06:07:28.277Z,1.98
2023-02-11T06:09:58.125Z,1.75
2023-02-11T06:14:52.114Z,1.95
2023-02-11T06:17:19.273Z,2.78
2023-02-11T06:19:46.301Z,2.40
2023-02-11T06:22:15.879Z,2.90
2023-02-11T06:25:00.237Z,2.25
2023-02-11T06:27:31.825Z,2.50
2023-02-11T06:29:58.990Z,1.58
2023-02-11T06:32:45.460Z,2.67
2023-02-11T06:35:14.710Z,2.08
2023-02-11T06:37:45.393Z,2.60
2023-02-11T06:40:12.890Z,2.47
2023-02-11T06:42:40.934Z,2.60
2023-02-11T06:45:12.267Z,2.65
2023-02-11T06:47:40.563Z,2.88
2023-02-11T06:50:09.274Z,2.30
2023-02-11T06:52:36.482Z,3.08
2023-02-11T06:55:03.595Z,2.90
2023-02-11T06:57:31.833Z,3.10
2023-02-11T06:59:58.917Z,2.67
2023-02-11T07:02:25.974Z,3.60
2023-02-11T07:04:53.033Z,3.05
2023-02-11T07:07:20.050Z,2.25
2023-02-11T07:09:47.077Z,2.83
2023-02-11T07:12:14.137Z,2.28
2023-02-11T07:14:44.356Z,2.10
2023-02-11T07:17:11.428Z,3.13
2023-02-11T07:19:38.508Z,2.95
2023-02-11T07:22:05.582Z,2.83
2023-02-11T07:24:32.781Z,2.78
2023-02-11T07:26:59.857Z,2.67
2023-02-11T07:29:26.962Z,3.35
2023-02-11T07:31:55.440Z,2.92
2023-02-11T07:34:22.662Z,2.67
2023-02-11T07:36:49.994Z,2.80
2023-02-11T07:39:17.116Z,2.97
2023-02-11T07:41:44.646Z,3.00
2023-02-11T07:44:12.113Z,2.60
2023-02-11T07:46:43.158Z,2.25
2023-02-11T07:49:10.968Z,2.88
2023-02-11T07:51:38.306Z,3.95
2023-02-11T07:54:05.498Z,2.97
2023-02-11T07:56:33.405Z,3.65
2023-02-11T07:59:03.798Z,3.70
2023-02-11T08:01:31.071Z,3.55
2023-02-11T08:04:00.257Z,3.42
2023-02-11T08:06:29.993Z,4.03
2023-02-11T08:11:28.114Z,3.58
2023-02-11T08:13:56.723Z,3.78
2023-02-11T08:16:30.298Z,3.72
2023-02-11T08:18:59.364Z,3.95
2023-02-11T08:21:27.181Z,3.78
2023-02-11T08:23:54.427Z,3.40
2023-02-11T08:26:25.480Z,4.05
2023-02-11T08:28:54.205Z,4.85
2023-02-11T08:31:22.877Z,3.50
2023-02-11T08:33:50.776Z,3.97
2023-02-11T08:36:23.442Z,4.32
2023-02-11T08:38:50.718Z,4.28
2023-02-11T08:41:18.197Z,3.42
2023-02-11T08:43:45.951Z,3.88
2023-02-11T08:46:16.062Z,3.75
2023-02-11T08:48:44.245Z,4.47
2023-02-11T08:51:16.985Z,4.00
2023-02-11T08:53:44.193Z,4.07
2023-02-11T08:56:13.595Z,5.32
2023-02-11T08:58:41.185Z,4.47
2023-02-11T09:01:22.706Z,4.43
2023-02-11T09:03:50.355Z,4.63
2023-02-11T09:06:18.882Z,3.95
2023-02-11T09:08:49.557Z,4.07
2023-02-11T09:11:18.024Z,4.03
2023-02-11T09:13:46.237Z,3.65
2023-02-11T09:16:22.250Z,3.53
2023-02-11T09:18:49.523Z,4.10
2023-02-11T09:21:19.038Z,3.08
2023-02-11T09:23:48.091Z,4.07
2023-02-11T09:26:16.644Z,3.92
2023-02-11T09:28:43.875Z,3.85
2023-02-11T09:31:13.991Z,3.45
2023-02-11T09:33:47.906Z,4.43
2023-02-11T09:36:16.963Z,4.18
2023-02-11T09:38:44.846Z,3.33
2023-02-11T09:41:23.772Z,3.47
2023-02-11T09:43:58.357Z,4.20
2023-02-11T09:46:29.157Z,4.22
2023-02-11T09:48:56.775Z,4.18
2023-02-11T09:51:48.473Z,2.90
2023-02-11T09:54:30.485Z,3.88
2023-02-11T09:56:57.560Z,2.90
2023-02-11T09:59:24.633Z,4.47
2023-02-11T10:02:04.852Z,3.70
2023-02-11T10:04:45.032Z,3.70
2023-02-11T10:07:30.906Z,3.30
2023-02-11T10:09:57.924Z,4.20
2023-02-11T10:12:44.551Z,3.08
2023-02-11T10:15:42.431Z,3.70
2023-02-11T10:18:18.596Z,2.88
2023-02-11T10:21:06.902Z,3.03
2023-02-11T10:23:39.566Z,2.80
2023-02-11T10:26:14.081Z,3.05
2023-02-11T10:28:44.593Z,4.07
2023-02-11T10:31:16.092Z,3.85
2023-02-11T10:34:01.833Z,2.90
2023-02-11T10:36:35.324Z,3.55
2023-02-11T10:39:16.056Z,4.47
2023-02-11T10:41:50.908Z,4.85
2023-02-11T10:44:27.799Z,4.03
2023-02-11T10:46:56.547Z,3.67
2023-02-11T10:49:41.965Z,3.83
2023-02-11T10:52:17.934Z,3.95
2023-02-11T10:55:16.262Z,4.70
2023-02-11T10:57:59.520Z,3.78
2023-02-11T11:00:26.598Z,3.63
2023-02-11T11:02:57.058Z,3.47
2023-02-11T11:05:33.252Z,3.67
2023-02-11T11:08:06.755Z,3.35
2023-02-11T11:10:43.773Z,3.55
2023-02-11T11:13:29.470Z,3.65
2023-02-11T11:16:11.576Z,4.07
2023-02-11T11:18:46.720Z,3.30
2023-02-11T11:21:19.441Z,3.35
2023-02-11T11:23:59.990Z,4.18
2023-02-11T11:26:42.680Z,4.88
2023-02-11T11:29:16.346Z,4.20
2023-02-11T11:31:52.795Z,3.75
2023-02-11T11:34:35.469Z,4.82
2023-02-11T11:37:19.585Z,4.90
2023-02-11T11:40:17.117Z,4.53
2023-02-11T11:42:44.235Z,4.93
2023-02-11T11:45:19.866Z,4.10
2023-02-11T11:50:28.029Z,4.03
2023-02-11T11:53:12.378Z,4.25
2023-02-11T11:55:47.431Z,3.65
2023-02-11T11:58:21.250Z,4.63
2023-02-11T12:01:03.211Z,3.67
2023-02-11T12:03:58.148Z,4.20
2023-02-11T12:06:51.169Z,3.33
2023-02-11T12:09:48.691Z,4.63
2023-02-11T12:12:49.587Z,3.83
2023-02-11T12:15:19.439Z,4.13
2023-02-11T12:17:54.887Z,4.68
2023-02-11T12:20:49.770Z,4.93
2023-02-11T12:23:32.956Z,4.22
2023-02-11T12:26:06.021Z,4.05
2023-02-11T12:28:53.946Z,4.90
2023-02-11T12:31:53.106Z,4.75
2023-02-11T12:34:51.597Z,3.65
2023-02-11T12:37:51.091Z,5.00
2023-02-11T12:40:33.624Z,5.05
2023-02-11T12:43:18.827Z,3.55
2023-02-11T12:45:45.937Z,3.80
2023-02-11T12:48:41.087Z,6.18
2023-02-11T12:51:23.539Z,3.20
2023-02-11T12:54:00.111Z,4.05
2023-02-11T12:56:36.237Z,4.97
2023-02-11T12:59:11.889Z,4.80
2023-02-11T13:01:44.858Z,3.92
2023-02-11T13:04:35.484Z,6.13
2023-02-11T13:07:29.806Z,3.83
2023-02-11T13:10:15.779Z,3.78
2023-02-11T13:13:05.449Z,5.03
2023-02-11T13:15:33.439Z,4.20
2023-02-11T13:18:51.844Z,5.57
2023-02-11T13:21:39.049Z,3.90
2023-02-11T13:24:21.048Z,4.47
2023-02-11T13:27:09.089Z,4.32
2023-02-11T13:29:56.190Z,4.68
2023-02-11T13:32:23.226Z,4.55
2023-02-11T13:34:52.928Z,5.18
2023-02-11T13:37:32.498Z,5.38
2023-02-11T13:40:23.032Z,4.72
2023-02-11T13:42:53.699Z,5.47
2023-02-11T13:45:36.337Z,5.07
2023-02-11T13:48:07.092Z,5.43
2023-02-11T13:50:39.685Z,5.07
2023-02-11T13:53:08.935Z,5.10
2023-02-11T13:55:36.220Z,5.55
2023-02-11T13:58:06.254Z,3.78
2023-02-11T14:00:36.045Z,5.28
2023-02-11T14:06:28.025Z,5.13
2023-02-11T14:09:10.080Z,4.65
2023-02-11T14:11:49.857Z,4.85
2023-02-11T14:14:24.437Z,5.60
2023-02-11T14:17:03.510Z,4.90
2023-02-11T14:19:39.633Z,5.75
2023-02-11T14:22:09.648Z,6.18
2023-02-11T14:24:36.614Z,6.05
2023-02-11T14:27:21.408Z,4.78
2023-02-11T14:29:54.092Z,5.53
2023-02-11T14:32:43.443Z,6.03
2023-02-11T14:35:15.504Z,5.88
2023-02-11T14:38:10.338Z,6.18
2023-02-11T14:41:07.555Z,5.50
2023-02-11T14:43:54.065Z,6.13
2023-02-11T14:46:23.726Z,6.45
2023-02-11T14:51:31.393Z,4.45
2023-02-11T14:54:25.322Z,6.15
2023-02-11T14:57:14.029Z,6.35
2023-02-11T15:00:03.044Z,5.47
2023-02-11T15:02:36.640Z,6.32
2023-02-11T15:05:26.355Z,4.80
2023-02-11T15:07:57.141Z,4.63
2023-02-11T15:10:44.320Z,6.10
2023-02-11T15:13:21.787Z,5.55
2023-02-11T15:15:53.328Z,5.82
2023-02-11T15:18:24.543Z,5.75
2023-02-11T15:20:52.561Z,6.80
2023-02-11T15:23:28.536Z,5.25
2023-02-11T15:25:58.296Z,5.25
2023-02-11T15:31:25.445Z,5.78
2023-02-11T15:33:53.948Z,5.78
2023-02-11T15:36:28.764Z,6.05
2023-02-11T15:39:41.298Z,5.20
2023-02-11T15:42:17.531Z,4.80
2023-02-11T15:44:45.334Z,5.03
2023-02-11T15:47:17.014Z,6.22
2023-02-11T15:49:46.055Z,4.60
2023-02-11T15:52:14.480Z,6.88
2023-02-11T15:54:47.277Z,5.00
2023-02-11T15:57:15.232Z,3.72
2023-02-11T15:59:48.200Z,4.82
2023-02-11T16:02:34.780Z,5.55
2023-02-11T16:05:09.797Z,5.63
2023-02-11T16:07:51.067Z,4.20
2023-02-11T16:10:21.556Z,5.72
2023-02-11T16:13:02.758Z,5.65
2023-02-11T16:15:38.391Z,4.90
2023-02-11T16:20:52.221Z,5.28
2023-02-11T16:23:31.968Z,5.10
2023-02-11T16:26:12.987Z,5.60
2023-02-11T16:28:41.242Z,5.30
2023-02-11T16:31:09.865Z,5.05
2023-02-11T16:33:36.984Z,5.30
2023-02-11T16:36:13.584Z,6.15
2023-02-11T16:38:40.781Z,5.72
2023-02-11T16:41:08.968Z,5.15
2023-02-11T16:43:36.106Z,5.55
2023-02-11T16:46:04.165Z,5.90
2023-02-11T16:48:32.714Z,4.95
2023-02-11T16:50:59.757Z,5.10
2023-02-11T16:53:26.848Z,5.57
2023-02-11T16:55:54.267Z,5.47
2023-02-11T16:58:21.329Z,6.35
2023-02-11T17:00:48.967Z,4.55
2023-02-11T17:03:26.925Z,5.25
2023-02-11T17:05:56.056Z,5.05
2023-02-11T17:08:23.410Z,5.47
2023-02-11T17:10:50.726Z,5.55
2023-02-11T17:13:18.048Z,5.85
2023-02-11T17:15:45.107Z,5.50
2023-02-11T17:18:14.579Z,5.30
2023-02-11T17:20:42.175Z,5.28
2023-02-11T17:23:09.660Z,6.07
2023-02-11T17:25:37.521Z,6.43
2023-02-11T17:28:06.186Z,6.75
2023-02-11T17:30:33.428Z,4.88
2023-02-11T17:33:00.609Z,4.40
2023-02-11T17:35:27.813Z,5.63
2023-02-11T17:37:54.853Z,6.68
2023-02-11T17:40:22.068Z,5.55
2023-02-11T17:42:50.275Z,5.72
2023-02-11T17:45:18.253Z,6.45
2023-02-11T17:47:48.066Z,6.38
2023-02-11T17:50:15.378Z,4.10
2023-02-11T17:52:42.460Z,5.63
2023-02-11T17:55:09.546Z,5.47
2023-02-11T17:57:36.677Z,6.55
2023-02-11T18:00:05.662Z,5.93
2023-02-11T18:02:40.029Z,5.57
2023-02-11T18:05:07.456Z,6.55
2023-02-11T18:07:34.615Z,6.03
2023-02-11T18:10:01.772Z,6.45
2023-02-11T18:12:30.099Z,6.00
2023-02-11T18:14:58.258Z,6.72
2023-02-11T18:17:25.477Z,6.57
2023-02-11T18:19:57.054Z,6.25
2023-02-11T18:22:25.132Z,5.45
2023-02-11T18:24:55.964Z,6.55
2023-02-11T18:27:22.998Z,6.72
2023-02-11T18:29:50.046Z,6.40
2023-02-11T18:32:17.072Z,7.75
2023-02-11T18:34:44.079Z,5.82
2023-02-11T18:37:13.475Z,5.45
2023-02-11T18:39:41.090Z,6.70
2023-02-11T18:42:08.623Z,6.40
2023-02-11T18:44:36.492Z,5.68
2023-02-11T18:47:03.700Z,6.40
2023-02-11T18:49:30.713Z,5.72
2023-02-11T18:51:58.959Z,7.10
2023-02-11T18:54:26.058Z,6.32
2023-02-11T18:56:53.149Z,6.47
2023-02-11T18:59:20.180Z,6.38
2023-02-11T19:01:47.368Z,6.85
2023-02-11T19:04:19.850Z,6.70
2023-02-11T19:06:49.627Z,6.35
2023-02-11T19:09:19.427Z,5.70
2023-02-11T19:14:28.932Z,6.15
2023-02-11T19:16:59.308Z,5.88
2023-02-11T19:19:29.163Z,5.22
2023-02-11T19:21:58.366Z,5.55
2023-02-11T19:24:25.752Z,6.03
2023-02-11T19:26:56.260Z,5.88
2023-02-11T19:29:23.390Z,5.95
2023-02-11T19:31:50.631Z,4.85
2023-02-11T19:34:20.016Z,6.07
2023-02-11T19:36:48.001Z,5.68
2023-02-11T19:39:15.062Z,6.78
2023-02-11T19:41:42.356Z,6.35
2023-02-11T19:44:09.699Z,5.13
2023-02-11T19:46:41.045Z,6.22
2023-02-11T19:49:10.074Z,6.90
2023-02-11T19:51:39.547Z,6.65
2023-02-11T19:54:07.388Z,6.18
2023-02-11T19:56:35.164Z,7.07
2023-02-11T19:59:03.015Z,5.55
2023-02-11T20:01:30.082Z,5.53
2023-02-11T20:03:57.877Z,6.82
2023-02-11T20:06:31.398Z,4.68
2023-02-11T20:09:05.542Z,6.70
2023-02-11T20:11:33.697Z,6.25
2023-02-11T20:14:01.130Z,7.00
2023-02-11T20:16:46.179Z,6.82
2023-02-11T20:19:20.518Z,4.82
2023-02-11T20:21:50.586Z,5.88
2023-02-11T20:24:18.593Z,5.82
2023-02-11T20:26:48.539Z,5.57
2023-02-11T20:29:19.182Z,5.22
2023-02-11T20:31:46.413Z,6.03
2023-02-11T20:34:14.107Z,6.47
2023-02-11T20:36:41.212Z,5.68
2023-02-11T20:39:08.630Z,6.03
2023-02-11T20:41:39.926Z,6.00
2023-02-11T20:44:10.121Z,5.78
2023-02-11T20:46:40.416Z,5.68
2023-02-11T20:49:08.892Z,6.88
2023-02-11T20:51:37.051Z,6.43
2023-02-11T20:54:06.195Z,5.97
2023-02-11T20:56:36.981Z,5.20
2023-02-11T20:59:06.023Z,5.68
2023-02-11T21:01:35.948Z,5.95
2023-02-11T21:04:17.913Z,6.07
2023-02-11T21:06:47.545Z,5.53
2023-02-11T21:09:21.630Z,5.50
2023-02-11T21:11:51.747Z,5.38
2023-02-11T21:14:20.487Z,5.43
2023-02-11T21:16:47.815Z,5.75
2023-02-11T21:19:15.943Z,6.78
2023-02-11T21:21:43.214Z,5.43
2023-02-11T21:24:11.174Z,5.53
2023-02-11T21:26:38.379Z,5.07
2023-02-11T21:29:07.763Z,7.32
2023-02-11T21:31:35.807Z,4.97
2023-02-11T21:34:03.548Z,5.47
2023-02-11T21:36:30.912Z,5.35
2023-02-11T21:38:58.136Z,5.22
2023-02-11T21:41:25.253Z,6.13
2023-02-11T21:43:52.562Z,5.25
2023-02-11T21:46:20.559Z,5.55
2023-02-11T21:48:47.846Z,5.60
2023-02-11T21:51:21.408Z,5.13
2023-02-11T21:53:52.333Z,5.35
2023-02-11T21:56:19.437Z,5.38
2023-02-11T21:58:47.059Z,5.07
2023-02-11T22:01:16.725Z,5.28
2023-02-11T22:03:44.136Z,4.90
2023-02-11T22:06:14.247Z,5.55
2023-02-11T22:08:41.954Z,5.30
2023-02-11T22:11:11.670Z,4.85
2023-02-11T22:16:08.732Z,4.03
2023-02-11T22:18:36.548Z,4.47
2023-02-11T22:21:06.654Z,5.65
2023-02-11T22:23:34.507Z,5.60
2023-02-11T22:26:06.374Z,5.15
2023-02-11T22:28:33.621Z,5.40
2023-02-11T22:31:01.294Z,4.50
2023-02-11T22:33:29.058Z,5.18
2023-02-11T22:36:04.453Z,4.95
2023-02-11T22:38:33.127Z,5.07
2023-02-11T22:41:05.153Z,5.80
2023-02-11T22:43:32.926Z,5.05
2023-02-11T22:46:01.572Z,5.45
2023-02-11T22:48:29.054Z,5.78
2023-02-11T22:50:56.157Z,5.32
2023-02-11T22:53:25.634Z,4.65
2023-02-11T22:55:52.974Z,5.63
2023-02-11T22:58:20.247Z,5.13
2023-02-11T23:00:47.348Z,5.35
2023-02-11T23:03:15.420Z,6.05
2023-02-11T23:05:42.756Z,5.88
2023-02-11T23:08:11.767Z,5.13
2023-02-11T23:10:40.290Z,4.95
2023-02-11T23:13:10.192Z,5.03
2023-02-11T23:15:41.591Z,4.75
2023-02-11T23:18:09.959Z,5.40
2023-02-11T23:20:39.186Z,5.22
2023-02-11T23:23:06.550Z,5.70
2023-02-11T23:25:34.336Z,5.82
2023-02-11T23:28:01.820Z,5.22
2023-02-11T23:30:29.306Z,5.00
2023-02-11T23:32:56.368Z,6.07
2023-02-11T23:35:23.647Z,5.25
2023-02-11T23:37:54.477Z,5.47
2023-02-11T23:40:22.205Z,5.97
2023-02-11T23:42:49.293Z,5.38
2023-02-11T23:45:16.337Z,5.68
2023-02-11T23:47:43.387Z,5.55
2023-02-11T23:50:11.042Z,5.53
2023-02-11T23:52:38.033Z,5.60
2023-02-11T23:55:05.815Z,6.10
2023-02-11T23:57:33.839Z,5.50
